Terminal Aerodrome Forecast
Issued by NWS Sterling, VA

Home | Current Version | Previous Version | Text Only | Print | Product List | Glossary On
Versions: 1 2 3 4 5 6 7 8 9 10 11 12 13 14 15 16 17
000
FTUS41 KLWX 280530
TAFMRB
TAF
KMRB 280530Z 2806/2906 VRB04KT P6SM OVC100
     FM280700 VRB03KT 3SM BR SCT050 BKN120
     FM281200 30004KT P6SM SCT150
     FM281800 VRB05KT P6SM VCSH SCT050 BKN090
     FM290200 VRB03KT P6SM SCT070=

USA.gov is the U.S. government's official web portal to all federal, state and local government web resources and services.